Historyczne dane pomiarowe

Dodano dane terminowe – wersja testowa.

Dane z okresu 1951-2019

Wersja bazy: 1.34 [2019-03-16, lista zmian], aktualizacja planowana na 2019-04-15

Dane meteo z obszaru Polski uzyskane na podstawie danych udostępnionych przez Instytut Meteorologii i Gospodarki Wodnej – Państwowy Instytut Badawczy.

 

Wybierz Datę:    

       

TemperaturaWilgotnośćWiatrCiśnienieOpadyŚniegCzas trwania zjawisk
 Stacja t tx tn tng RH VA  wxwx mslp ppp RRR   cm mm wxwxwxwxwxwxwx
1961-08-14 14.6 17.6 9.9- 85.5- 7.0 3.0---- 1.2------------
1961-08-13 13.5 17.1 10.4- 81.8- 2.0 6.3---- 0.0------------
1961-08-12 15.4 18.9 13.5- 89.5- 4.7 2.0---- 0.0------------
1961-08-11 16.4 18.9 14.3- 91.3- 5.3 0.7---- 0.0------------
1961-08-10 17.0 22.7 13.5- 88.8- 5.0 1.7---- 2.0------------
1961-08-09 16.6 19.4 14.0- 77.8- 3.3 4.3---- 0.0------------
1961-08-08 15.5 18.2 12.0- 84.0- 6.0 4.0---- 1.0------------
1961-08-07 15.3 19.1 12.6- 89.0- 7.7 1.3---- 2.8------------
1961-08-06 16.3 24.8 12.5- 91.5- 5.7 3.7---- 0.0------------
1961-08-05 14.7 18.4 13.1- 83.5- 3.0 4.0---- 1.9------------
1961-08-04 13.9 18.5 9.5- 89.0- 6.7 5.0---- 3.9------------
1961-08-03 13.3 17.6 11.7- 95.5- 5.0 2.3---- 6.6------------
1961-08-02 16.0 20.1 12.3- 88.5- 6.0 3.3---- 0.0------------
1961-08-01 14.5 17.0 13.6- 95.5- 7.7 3.7---- 10.3------------
1961-07-31 15.1 17.1 13.2- 96.8- 7.0 5.7---- 21.1------------
1961-07-30 15.6 18.0 12.2- 91.8- 5.7 2.0---- 0.9------------
1961-07-29 14.3 16.8 10.4- 81.8- 5.7 5.7---- 0.1------------
1961-07-28 12.6 15.6 11.4- 90.0- 6.3 3.0---- 0.3------------
1961-07-27 14.8 19.9 13.2- 87.0- 7.0 5.7---- 0.8------------
1961-07-26 15.3 19.7 12.2- 91.8- 8.0 3.7---- 3.5------------
1961-07-25 14.7 16.8 11.5- 79.3- 5.7 7.0---- 0.9------------
1961-07-24 14.3 17.3 11.4- 82.3- 5.0 5.7---- 0.0------------
1961-07-23 14.2 18.3 12.6- 85.8- 6.0 4.3---- 0.0------------
1961-07-22 14.9 17.6 11.7- 84.5- 5.0 5.7---- 0.0------------
1961-07-21 14.7 16.9 11.3- 94.0- 7.0 0.3---- 7.9------------
1961-07-20 15.1 21.0 10.7- 85.5- 4.7 2.3---- 40.1------------
1961-07-19 14.9 17.3 12.2- 95.3- 5.0 3.0---- 3.7------------
1961-07-18 14.8 17.7 12.8- 87.8- 6.0 1.0---- 0.0------------
1961-07-17 15.7 18.5 10.7- 79.0- 5.3 0.3---- 0.3------------
1961-07-16 14.9 16.9 11.7- 90.8- 7.0 1.0---- 0.0------------
1961-07-15 14.0 18.2 11.2- 87.5- 5.0 1.3---- 27.6------------
1961-07-14 14.2 18.7 12.4- 90.8- 7.3 4.7---- 0.0------------
1961-07-13 18.5 20.6 13.9- 88.5- 5.0 5.7---- 56.6------------
1961-07-12 15.5 20.1 11.8- 92.0- 6.0 0.3---- 0.0------------
1961-07-11 13.6 16.8 10.4- 77.3- 4.0 4.0---- 0.1------------
1961-07-10 13.7 16.3 10.3- 85.5- 6.3 4.0---- 6.1------------
1961-07-09 14.8 18.1 13.0- 85.3- 8.0 5.0---- 4.0------------
1961-07-08 14.7 18.9 8.8- 85.3- 6.7 2.0---- 9.2------------
1961-07-07 12.5 16.6 9.5- 85.0- 3.7 6.3---- 0.0------------
1961-07-06 12.4 16.1 7.5- 80.8- 5.7 5.3---- 2.9------------
1961-07-05 12.0 16.6 10.5- 81.3- 3.7 11.3---- 0.2------------
1961-07-04 16.3 20.2 10.6- 72.3- 6.3 3.7---- 0.0------------
1961-07-03 20.4 28.9 16.0- 75.3- 3.0 3.7---- 0.0------------
1961-07-02 20.3 26.3 11.3- 63.0- 0.0 3.0---- 0.0------------
1961-07-01 16.0 22.4 9.8- 83.3- 0.3 1.0---- 0.0------------
1961-06-30 15.0 18.1 12.5- 80.5- 0.0 5.7---- 0.0------------
1961-06-29 14.8 17.3 12.5- 75.5- 2.3 8.7---- 0.0------------
1961-06-28 13.6 18.0 12.4- 70.3- 4.0 12.7---- 0.0------------
1961-06-27 20.2 29.3 14.3- 78.8- 4.0 4.7---- 0.4------------
1961-06-26 15.9 20.5 13.1- 84.5- 0.7 6.7---- 0.0------------
1961-06-25 19.4 25.1 14.6- 61.5- 2.7 7.7---- 0.0------------
1961-06-24 16.2 18.8 12.8- 63.3- 4.0 8.7---- 0.0------------
1961-06-23 15.9 18.4 12.1- 67.0- 2.3 5.0---- 0.0------------
1961-06-22 14.5 17.4 7.7- 76.8- 2.7 1.7---- 0.0------------
1961-06-21 12.4 18.1 9.7- 81.8- 3.7 4.0---- 0.0------------
1961-06-20 12.6 15.7 10.6- 64.8- 3.0 8.3---- 0.0------------
1961-06-19 13.6 17.1 11.3- 74.0- 3.0 10.0---- 0.0------------
1961-06-18 17.6 24.2 14.4- 82.0- 4.7 6.3---- 2.0------------
1961-06-17 16.0 18.8 12.0- 74.8- 2.0 7.0---- 0.0------------
1961-06-16 13.7 15.3 11.5- 87.0- 6.3 8.0---- 0.5------------
484.4 ms

 

Źródłem pochodzenia danych jest Instytut Meteorologii i Gospodarki Wodnej – Państwowy Instytut Badawczy. Dane Instytutu Meteorologii i Gospodarki Wodnej – Państwowego Instytutu Badawczego zostały przetworzone.

Dane źródłowe można odnaleźć na stronie https://dane.imgw.pl